Time;durP1;ratioP1;P1;durP2;ratioP2;P2;SDS_P1;SDS_P2;PMS_P1;PMS_P2;Temp;Humidity;BMP_temperature;BMP_pressure;BME280_temperature;BME280_humidity;BME280_pressure;Samples;Min_cycle;Max_cycle;Signal;HPM_P1;HPM_P2
2022/09/19 05:47:34;;;;;;;2.17;1.80;;;6.40;99.90;;;;;;5014122;28;20537;-89
2022/09/19 05:50:00;;;;;;;3.13;1.60;;;6.40;99.90;;;;;;5011647;28;20463;-89
2022/09/19 06:57:26;;;;;;;6.53;2.70;;;8.20;99.90;;;;;;5144421;27;20273;-91
2022/09/19 07:50:48;;;;;;;6.87;1.60;;;8.40;99.90;;;;;;5143014;27;20279;-89
2022/09/19 07:53:17;;;;;;;8.30;1.63;;;8.40;99.90;;;;;;5130288;28;20235;-91
2022/09/19 07:55:48;;;;;;;8.10;1.73;;;8.50;99.90;;;;;;5136861;28;20174;-90
2022/09/19 07:58:14;;;;;;;7.97;1.33;;;8.60;99.90;;;;;;5136090;28;20173;-91
2022/09/19 08:00:40;;;;;;;6.47;1.40;;;8.70;99.90;;;;;;5136460;28;20191;-92
2022/09/19 08:03:09;;;;;;;4.20;1.53;;;8.90;99.90;;;;;;5139361;27;20196;-91
2022/09/19 08:05:41;;;;;;;11.47;4.40;;;9.00;99.90;;;;;;5139847;27;20185;-91
2022/09/19 08:08:10;;;;;;;9.23;3.43;;;9.00;99.90;;;;;;5139881;28;20178;-91
2022/09/19 08:10:36;;;;;;;7.23;2.23;;;9.00;99.90;;;;;;5141629;28;20242;-91
2022/09/19 08:13:04;;;;;;;7.27;1.83;;;9.00;99.90;;;;;;5143527;28;20218;-90
2022/09/19 08:15:30;;;;;;;8.07;1.47;;;9.10;99.90;;;;;;5143947;28;20214;-90
2022/09/19 08:18:02;;;;;;;4.87;1.60;;;9.10;99.90;;;;;;5139492;28;20177;-90
2022/09/19 08:20:31;;;;;;;3.53;1.97;;;9.20;99.90;;;;;;5134752;28;20386;-91
2022/09/19 08:23:02;;;;;;;8.17;1.93;;;9.40;99.90;;;;;;5133661;28;20668;-89
2022/09/19 08:25:30;;;;;;;8.53;1.97;;;9.50;99.90;;;;;;5142536;28;20167;-91
2022/09/19 08:27:56;;;;;;;7.03;1.93;;;9.70;99.90;;;;;;5138995;28;20248;-90
2022/09/19 08:30:29;;;;;;;3.50;1.87;;;10.10;99.90;;;;;;5136860;28;20234;-90
2022/09/19 08:32:56;;;;;;;6.37;3.27;;;10.50;99.90;;;;;;5135749;27;20226;-89
2022/09/19 08:35:41;;;;;;;3.73;1.53;;;11.10;99.90;;;;;;5134904;28;20242;-90
2022/09/19 08:38:08;;;;;;;7.47;3.60;;;11.30;99.90;;;;;;5138292;28;20171;-90
2022/09/19 08:40:48;;;;;;;8.20;2.30;;;11.20;99.90;;;;;;5138984;27;20188;-90
2022/09/19 08:43:19;;;;;;;4.53;1.60;;;11.10;99.90;;;;;;5135551;27;20671;-89
2022/09/19 08:46:18;;;;;;;4.47;3.20;;;11.00;99.90;;;;;;5134804;27;20175;-90
2022/09/19 08:49:08;;;;;;;3.40;1.07;;;10.80;99.90;;;;;;5133783;28;20218;-89
2022/09/19 08:51:51;;;;;;;4.67;1.33;;;10.40;99.90;;;;;;5133925;28;20177;-89
2022/09/19 08:54:40;;;;;;;4.57;1.53;;;10.30;99.90;;;;;;5133708;28;20190;-90
2022/09/19 08:57:32;;;;;;;5.30;0.93;;;10.40;99.90;;;;;;5136453;28;20151;-90
2022/09/19 09:00:03;;;;;;;5.10;1.40;;;10.60;99.90;;;;;;5131825;27;20195;-90
2022/09/19 09:02:41;;;;;;;2.33;0.83;;;11.20;99.90;;;;;;5122995;28;20205;-90
2022/09/19 09:05:16;;;;;;;5.40;1.23;;;11.90;99.90;;;;;;5122719;28;20175;-90
2022/09/19 09:08:08;;;;;;;2.60;1.10;;;12.40;99.90;;;;;;5121162;28;20202;-92
2022/09/19 09:10:40;;;;;;;9.37;1.30;;;12.60;99.90;;;;;;5092931;28;20238;-89
2022/09/19 09:13:37;;;;;;;5.13;1.63;;;12.50;99.90;;;;;;5119562;28;20222;-90
2022/09/19 09:16:24;;;;;;;5.83;3.13;;;12.40;99.90;;;;;;5120320;28;20258;-90
2022/09/19 09:18:52;;;;;;;3.27;1.50;;;12.30;99.90;;;;;;5119051;28;20216;-90
2022/09/19 09:21:27;;;;;;;3.07;1.10;;;12.20;99.90;;;;;;5120909;28;20167;-89
2022/09/19 09:24:18;;;;;;;8.47;2.20;;;12.00;99.90;;;;;;5119957;28;20198;-89
2022/09/19 09:26:48;;;;;;;6.73;2.43;;;11.80;99.90;;;;;;5124069;28;20172;-89
2022/09/19 09:29:25;;;;;;;4.40;2.00;;;11.90;99.90;;;;;;5129311;28;20187;-90
2022/09/19 09:32:08;;;;;;;2.57;1.17;;;11.90;99.90;;;;;;5122340;28;20216;-90
2022/09/19 09:34:36;;;;;;;2.30;0.80;;;11.80;99.90;;;;;;5123627;28;20212;-86
2022/09/19 09:37:19;;;;;;;2.97;1.27;;;11.60;99.90;;;;;;5128775;28;20243;-90
2022/09/19 09:40:00;;;;;;;8.43;1.00;;;11.60;99.90;;;;;;5119765;28;20178;-91
2022/09/19 09:42:37;;;;;;;3.10;0.80;;;11.70;99.90;;;;;;5119433;28;20726;-89
2022/09/19 09:45:09;;;;;;;4.90;1.73;;;11.60;99.90;;;;;;5121342;28;20151;-90
2022/09/19 09:47:44;;;;;;;3.23;0.93;;;11.70;99.90;;;;;;5119234;28;20167;-90
2022/09/19 09:50:27;;;;;;;2.73;1.20;;;11.80;99.90;;;;;;5120464;28;20226;-88
2022/09/19 09:53:10;;;;;;;2.60;1.00;;;11.70;99.90;;;;;;5120512;28;20195;-89
2022/09/19 09:59:05;;;;;;;4.27;0.97;;;11.70;99.90;;;;;;5123868;28;20201;-89
2022/09/19 10:04:34;;;;;;;9.83;2.80;;;11.50;99.90;;;;;;5121151;28;20201;-89
2022/09/19 10:07:38;;;;;;;10.07;3.60;;;11.30;99.90;;;;;;5118891;28;20274;-88
2022/09/19 10:10:13;;;;;;;7.30;2.80;;;11.00;99.90;;;;;;5114501;28;20242;-89
2022/09/19 10:12:54;;;;;;;11.37;4.23;;;11.10;99.90;;;;;;5116308;28;20205;-89
2022/09/19 10:15:24;;;;;;;9.07;3.23;;;11.20;99.90;;;;;;5118441;28;20170;-88
2022/09/19 10:17:59;;;;;;;10.67;3.70;;;11.30;99.90;;;;;;5117371;28;20175;-88
2022/09/19 10:20:35;;;;;;;32.43;11.67;;;11.50;99.90;;;;;;5116840;28;20659;-89
2022/09/19 10:23:01;;;;;;;4.63;1.90;;;12.40;99.90;;;;;;5116787;28;20199;-88
2022/09/19 10:25:27;;;;;;;7.17;3.07;;;13.80;99.90;;;;;;5116537;28;20203;-87
2022/09/19 10:27:53;;;;;;;8.23;3.50;;;14.90;99.90;;;;;;5116751;28;20180;-89
2022/09/19 10:30:27;;;;;;;11.30;5.10;;;15.70;99.90;;;;;;5117154;28;20207;-86
2022/09/19 10:32:54;;;;;;;6.97;2.40;;;15.30;99.90;;;;;;5116371;28;20192;-86
2022/09/19 10:35:34;;;;;;;8.77;4.57;;;14.60;99.90;;;;;;5117539;28;20305;-85
2022/09/19 10:38:17;;;;;;;8.63;5.67;;;14.00;99.90;;;;;;5115979;28;20187;-86
2022/09/19 10:41:00;;;;;;;1.90;1.30;;;13.50;99.90;;;;;;5118835;28;20175;-85
2022/09/19 10:43:37;;;;;;;1.53;0.67;;;13.10;99.90;;;;;;5120683;28;20202;-86
2022/09/19 10:46:07;;;;;;;1.43;0.70;;;12.70;99.90;;;;;;5118201;28;20190;-87
2022/09/19 10:48:37;;;;;;;2.37;1.00;;;12.30;99.90;;;;;;5119275;28;20698;-87
2022/09/19 10:51:13;;;;;;;3.30;1.17;;;12.10;99.90;;;;;;5122923;28;20164;-85
2022/09/19 10:53:45;;;;;;;3.70;1.00;;;12.00;99.90;;;;;;5121154;28;20200;-87
2022/09/19 10:56:24;;;;;;;3.63;1.00;;;12.00;99.90;;;;;;5123562;28;20167;-87
2022/09/19 10:59:14;;;;;;;3.47;1.50;;;11.90;99.90;;;;;;5123292;28;20704;-86
2022/09/19 11:01:40;;;;;;;4.50;2.40;;;12.10;99.90;;;;;;5114560;28;20195;-86
2022/09/19 11:04:23;;;;;;;5.07;1.57;;;12.00;99.90;;;;;;5123805;28;20203;-88
2022/09/19 11:07:00;;;;;;;15.40;5.90;;;12.00;99.90;;;;;;5124571;28;20320;-87
2022/09/19 11:09:28;;;;;;;4.37;2.30;;;12.00;99.90;;;;;;5123662;28;20568;-87
2022/09/19 11:12:09;;;;;;;4.83;1.40;;;12.10;99.90;;;;;;5124878;28;20660;-88
2022/09/19 11:14:40;;;;;;;5.40;2.67;;;12.00;99.90;;;;;;5123072;28;20251;-88
2022/09/19 11:17:29;;;;;;;6.07;2.67;;;11.90;99.90;;;;;;5122947;28;20210;-87
2022/09/19 11:20:16;;;;;;;12.23;5.47;;;11.80;99.90;;;;;;5124655;28;20185;-87
2022/09/19 11:23:14;;;;;;;6.80;3.67;;;12.00;99.90;;;;;;5122648;28;20210;-88
2022/09/19 11:26:04;;;;;;;4.40;2.13;;;12.10;99.90;;;;;;5122935;28;20186;-86
2022/09/19 11:28:48;;;;;;;2.93;1.10;;;12.40;99.90;;;;;;5122529;28;20207;-88
2022/09/19 11:31:48;;;;;;;1.40;1.10;;;13.30;99.90;;;;;;5122896;28;20178;-89
2022/09/19 11:34:30;;;;;;;5.63;1.37;;;13.40;99.90;;;;;;5123580;28;20199;-87
2022/09/19 11:37:19;;;;;;;2.97;1.00;;;13.60;99.90;;;;;;5123203;28;20160;-86
2022/09/19 11:40:03;;;;;;;4.47;1.43;;;15.00;99.90;;;;;;5121270;28;20187;-87
2022/09/19 11:42:48;;;;;;;2.73;0.90;;;14.70;99.90;;;;;;5120531;28;20254;-86
2022/09/19 11:45:19;;;;;;;1.60;0.70;;;14.70;99.90;;;;;;5121175;28;20268;-86
2022/09/19 11:48:16;;;;;;;1.60;0.83;;;14.30;99.90;;;;;;5123013;28;20177;-88
2022/09/19 11:50:48;;;;;;;2.53;1.17;;;14.70;99.90;;;;;;5123378;28;20294;-87
2022/09/19 11:53:23;;;;;;;5.10;1.77;;;16.10;99.90;;;;;;5124200;28;20184;-88
2022/09/19 11:56:05;;;;;;;3.93;1.60;;;17.20;99.90;;;;;;5123524;28;20636;-88
2022/09/19 11:58:34;;;;;;;3.43;1.13;;;17.20;99.90;;;;;;5122237;28;20168;-87
2022/09/19 12:01:41;;;;;;;3.00;1.67;;;16.40;99.90;;;;;;5122170;28;20217;-87
2022/09/19 12:04:32;;;;;;;3.73;2.47;;;15.60;99.90;;;;;;5123550;28;20202;-88
2022/09/19 12:07:10;;;;;;;4.80;1.90;;;15.10;99.90;;;;;;5123192;28;20189;-86
2022/09/19 12:09:45;;;;;;;3.73;2.20;;;14.70;99.90;;;;;;5122707;28;20211;-88
2022/09/19 12:12:16;;;;;;;2.80;2.10;;;14.20;99.90;;;;;;5121240;28;20163;-87
2022/09/19 12:14:50;;;;;;;2.27;1.77;;;14.00;99.90;;;;;;5122463;28;20170;-87
2022/09/19 12:17:22;;;;;;;5.13;1.53;;;13.90;99.90;;;;;;5121857;28;20607;-87
2022/09/19 12:20:16;;;;;;;0.93;0.70;;;13.60;99.90;;;;;;5121488;28;20622;-87
2022/09/19 12:24:52;;;;;;;1.20;0.70;;;13.20;99.90;;;;;;5123355;28;20200;-88
2022/09/19 12:25:46;;;;;;;5.20;3.20;;;;;;;;;;5122674;28;20598;-88
2022/09/19 12:28:15;;;;;;;5.70;3.40;;;12.50;99.90;;;;;;5126612;28;20163;-87
2022/09/19 12:30:46;;;;;;;2.93;1.60;;;12.50;99.90;;;;;;5126659;28;20246;-86
2022/09/19 12:33:27;;;;;;;1.83;1.60;;;12.80;99.90;;;;;;5121311;28;20199;-87
2022/09/19 12:36:36;;;;;;;4.63;2.37;;;13.20;99.90;;;;;;5122174;28;20563;-87
2022/09/19 12:39:09;;;;;;;3.30;1.60;;;13.60;99.90;;;;;;5124825;28;20231;-86
2022/09/19 12:41:40;;;;;;;9.20;2.40;;;13.70;99.90;;;;;;5126569;28;20195;-86
2022/09/19 12:44:24;;;;;;;4.93;1.90;;;13.80;99.90;;;;;;5125859;28;20215;-86
2022/09/19 12:47:04;;;;;;;3.97;2.73;;;14.70;99.90;;;;;;5123222;28;20306;-85
2022/09/19 12:49:54;;;;;;;3.67;2.63;;;16.40;99.90;;;;;;5124607;28;20198;-87
2022/09/19 12:52:25;;;;;;;3.07;2.10;;;17.90;99.90;;;;;;5124371;28;20214;-87
2022/09/19 12:55:16;;;;;;;3.73;1.00;;;18.70;99.90;;;;;;5126746;28;20171;-87
2022/09/19 12:57:55;;;;;;;4.90;1.30;;;19.20;99.90;;;;;;5125455;28;20260;-85
2022/09/19 13:00:22;;;;;;;3.37;1.60;;;19.20;99.90;;;;;;5121481;28;20178;-88
2022/09/19 13:03:21;;;;;;;11.53;5.70;;;19.50;99.90;;;;;;5121144;28;20199;-88
2022/09/19 13:05:56;;;;;;;4.57;2.50;;;18.60;99.90;;;;;;5120823;28;20179;-89
2022/09/19 13:08:34;;;;;;;11.90;5.83;;;17.50;99.90;;;;;;5118868;28;20182;-87
2022/09/19 13:11:26;;;;;;;8.77;4.13;;;16.80;99.90;;;;;;5120261;28;20201;-88
2022/09/19 13:14:16;;;;;;;8.27;4.80;;;15.90;99.90;;;;;;5119902;28;20671;-84
2022/09/19 13:25:20;;;;;;;5.50;3.30;;;15.80;99.90;;;;;;5120613;28;20174;-86
2022/09/19 13:28:23;;;;;;;9.47;5.43;;;14.70;99.90;;;;;;5118163;28;20180;-85
2022/09/19 13:31:09;;;;;;;10.30;4.53;;;14.00;99.90;;;;;;5119947;28;20204;-85
2022/09/19 13:33:44;;;;;;;7.90;4.13;;;13.50;99.90;;;;;;5117720;28;20683;-85
2022/09/19 13:36:13;;;;;;;13.20;3.90;;;13.50;99.90;;;;;;5118742;28;20228;-85
2022/09/19 13:38:40;;;;;;;15.60;3.40;;;13.50;99.90;;;;;;5118498;28;20173;-86
2022/09/19 13:41:28;;;;;;;5.93;1.77;;;13.80;99.90;;;;;;5119641;28;20164;-86
2022/09/19 13:44:03;;;;;;;1.90;0.90;;;14.30;99.90;;;;;;5117996;28;20322;-86
2022/09/19 13:46:55;;;;;;;1.73;1.00;;;14.40;99.90;;;;;;5119674;28;20204;-86
2022/09/19 13:49:35;;;;;;;1.00;0.70;;;15.10;99.90;;;;;;5118905;28;20217;-85
2022/09/19 13:52:16;;;;;;;2.30;1.07;;;16.70;99.90;;;;;;5118159;28;20647;-85
2022/09/19 13:54:52;;;;;;;1.40;0.70;;;16.70;99.90;;;;;;5119937;28;20153;-86
2022/09/19 13:57:28;;;;;;;3.43;1.27;;;16.30;99.90;;;;;;5119697;28;20212;-86
2022/09/19 13:59:58;;;;;;;1.73;0.80;;;15.80;99.90;;;;;;5117845;28;20176;-87
2022/09/19 14:02:27;;;;;;;0.87;0.70;;;14.40;99.90;;;;;;5118022;28;20192;-87
2022/09/19 14:04:57;;;;;;;2.93;0.90;;;14.30;99.90;;;;;;5118865;28;20200;-89
2022/09/19 14:07:39;;;;;;;3.83;1.00;;;13.90;99.90;;;;;;5121709;28;20177;-86
2022/09/19 14:10:14;;;;;;;1.97;1.00;;;13.60;99.90;;;;;;5116751;28;20589;-87
2022/09/19 14:12:44;;;;;;;2.47;0.90;;;13.60;99.90;;;;;;5116518;28;20195;-87
2022/09/19 14:15:40;;;;;;;1.90;0.83;;;13.60;99.90;;;;;;5116736;28;20168;-87
2022/09/19 14:18:12;;;;;;;1.50;1.00;;;13.40;99.90;;;;;;5116876;28;20171;-86
2022/09/19 14:20:56;;;;;;;5.83;1.70;;;13.30;99.90;;;;;;5117042;28;20191;-87
2022/09/19 14:23:28;;;;;;;4.80;1.50;;;13.10;99.90;;;;;;5116911;28;20649;-88
2022/09/19 14:26:00;;;;;;;2.47;1.00;;;13.00;99.90;;;;;;5117207;28;20176;-87
2022/09/19 14:28:37;;;;;;;6.37;1.20;;;13.20;99.90;;;;;;5116971;28;20209;-89
2022/09/19 14:31:28;;;;;;;2.13;1.33;;;14.80;99.90;;;;;;5117934;28;20175;-88
2022/09/19 14:34:03;;;;;;;4.10;2.10;;;17.20;99.90;;;;;;5116655;28;20187;-89
2022/09/19 14:36:43;;;;;;;1.37;1.07;;;18.10;99.90;;;;;;5118152;28;20158;-88
2022/09/19 14:39:37;;;;;;;166.67;134.00;;;18.90;99.90;;;;;;5118195;28;20173;-87
2022/09/19 14:42:18;;;;;;;4.10;2.93;;;19.00;99.90;;;;;;5117910;28;20169;-88
2022/09/19 14:45:10;;;;;;;3.43;2.23;;;19.00;99.90;;;;;;5116705;28;20259;-87
2022/09/19 14:47:46;;;;;;;9.23;6.67;;;19.20;99.90;;;;;;5116985;28;20181;-88
2022/09/19 14:50:29;;;;;;;7.97;7.17;;;19.30;99.90;;;;;;5117868;28;20214;-88
2022/09/19 14:53:01;;;;;;;17.57;14.00;;;19.60;99.90;;;;;;5116863;28;20201;-88
2022/09/19 14:55:48;;;;;;;18.43;15.03;;;19.50;99.90;;;;;;5119174;28;20163;-88
2022/09/19 14:58:33;;;;;;;37.57;32.77;;;19.00;99.90;;;;;;5116364;28;20618;-86
2022/09/19 15:01:17;;;;;;;3.40;2.40;;;18.60;99.90;;;;;;5115903;28;20182;-87
2022/09/19 15:03:58;;;;;;;8.67;7.40;;;17.50;99.90;;;;;;5118148;28;20184;-88
2022/09/19 15:06:56;;;;;;;5.03;2.17;;;17.40;99.90;;;;;;5118038;28;20246;-86
2022/09/19 15:09:26;;;;;;;2.67;1.43;;;17.70;99.90;;;;;;5111379;28;20562;-87
2022/09/19 15:11:57;;;;;;;2.00;1.30;;;17.90;99.90;;;;;;5119587;28;20172;-86
2022/09/19 15:14:24;;;;;;;2.23;2.03;;;17.30;99.90;;;;;;5115972;28;20205;-87
2022/09/19 15:17:09;;;;;;;2.60;2.30;;;16.90;99.90;;;;;;5116353;28;20184;-87
2022/09/19 15:19:41;;;;;;;4.10;3.10;;;16.80;99.90;;;;;;5116516;28;20172;-88
2022/09/19 15:22:33;;;;;;;3.43;1.57;;;16.40;99.90;;;;;;5115401;28;20183;-87
2022/09/19 15:25:04;;;;;;;1.20;1.00;;;16.30;99.90;;;;;;5115641;28;20178;-86
2022/09/19 15:27:35;;;;;;;2.60;1.67;;;15.60;99.90;;;;;;5115365;28;20175;-87
2022/09/19 15:30:14;;;;;;;2.30;1.00;;;15.00;99.90;;;;;;5115714;28;20284;-88
2022/09/19 15:32:42;;;;;;;2.40;1.20;;;14.10;99.90;;;;;;5115862;28;20210;-87
2022/09/19 15:35:14;;;;;;;4.20;1.13;;;14.00;99.90;;;;;;5117195;28;20201;-86
2022/09/19 15:37:43;;;;;;;0.70;0.70;;;13.80;99.90;;;;;;5116618;28;20159;-86
2022/09/19 15:40:24;;;;;;;1.63;0.80;;;13.60;99.90;;;;;;5116574;28;20227;-89
2022/09/19 15:42:50;;;;;;;1.80;1.00;;;13.40;99.90;;;;;;5115148;28;20300;-87
2022/09/19 15:45:44;;;;;;;0.87;0.60;;;13.40;99.90;;;;;;5116138;28;20185;-87
2022/09/19 15:48:28;;;;;;;2.10;0.70;;;13.40;99.90;;;;;;5115950;28;20165;-87
2022/09/19 15:50:58;;;;;;;7.23;2.50;;;13.40;99.90;;;;;;5115063;28;20200;-86
2022/09/19 15:53:49;;;;;;;2.83;1.00;;;13.30;99.90;;;;;;5115961;28;20249;-86
2022/09/19 15:56:18;;;;;;;4.03;0.70;;;13.20;99.90;;;;;;5115028;28;20164;-86
2022/09/19 15:58:51;;;;;;;5.67;1.83;;;13.00;99.90;;;;;;5115084;28;20179;-87
2022/09/19 16:01:19;;;;;;;1.97;1.00;;;12.90;99.90;;;;;;5115650;28;20168;-87
2022/09/19 16:04:18;;;;;;;2.77;1.67;;;12.80;99.90;;;;;;5115180;28;20199;-87
2022/09/19 16:09:39;;;;;;;4.10;1.93;;;12.50;99.90;;;;;;5118110;28;20226;-85
2022/09/19 16:12:20;;;;;;;2.13;1.40;;;12.50;99.90;;;;;;5120833;28;20178;-87
2022/09/19 16:14:53;;;;;;;2.30;1.47;;;12.50;99.90;;;;;;5122967;28;20168;-87
2022/09/19 16:17:22;;;;;;;2.87;1.10;;;12.50;99.90;;;;;;5121128;28;20221;-86
2022/09/19 16:19:49;;;;;;;4.77;1.40;;;12.50;99.90;;;;;;5121566;28;20175;-87
2022/09/19 16:22:23;;;;;;;4.30;0.80;;;12.50;99.90;;;;;;5132445;28;20176;-84
2022/09/19 16:25:00;;;;;;;2.70;1.00;;;12.50;99.90;;;;;;5126929;28;20674;-86
2022/09/19 16:27:27;;;;;;;0.70;0.63;;;12.50;99.90;;;;;;5120486;28;20586;-84
2022/09/19 16:29:55;;;;;;;1.37;0.83;;;12.50;99.90;;;;;;5119893;28;20668;-85
2022/09/19 16:32:22;;;;;;;4.77;1.10;;;12.50;99.90;;;;;;5122055;28;20203;-85
2022/09/19 16:34:53;;;;;;;3.33;1.57;;;12.40;99.90;;;;;;5121627;28;20182;-86
2022/09/19 16:37:44;;;;;;;3.10;1.07;;;12.30;99.90;;;;;;5122772;28;20175;-85
2022/09/19 16:40:09;;;;;;;3.47;1.07;;;12.10;99.90;;;;;;5121796;28;20191;-84
2022/09/19 16:42:36;;;;;;;13.33;1.17;;;12.00;99.90;;;;;;5120704;28;20204;-85
2022/09/19 16:45:14;;;;;;;187.00;103.17;;;11.90;99.90;;;;;;5120882;28;20178;-86
2022/09/19 16:47:40;;;;;;;28.73;19.23;;;11.70;99.90;;;;;;5119254;28;20207;-83
2022/09/19 16:50:07;;;;;;;11.73;5.73;;;11.70;99.90;;;;;;5120069;28;20260;-84
2022/09/19 16:52:35;;;;;;;3.70;3.00;;;11.60;99.90;;;;;;5120271;28;20616;-84
2022/09/19 16:55:04;;;;;;;3.43;2.70;;;11.60;99.90;;;;;;5119566;28;20625;-85
2022/09/19 16:57:30;;;;;;;2.83;1.90;;;11.50;99.90;;;;;;5119722;28;20178;-84
2022/09/19 16:59:56;;;;;;;2.97;1.67;;;11.50;99.90;;;;;;5119649;28;20172;-84
2022/09/19 17:02:30;;;;;;;3.07;1.30;;;11.40;99.90;;;;;;5120992;28;20226;-83
2022/09/19 17:04:59;;;;;;;5.87;1.87;;;11.30;99.90;;;;;;5122210;28;20187;-82
2022/09/19 17:07:25;;;;;;;19.17;10.07;;;11.30;99.90;;;;;;5122445;28;20208;-85
2022/09/19 17:09:52;;;;;;;15.67;7.20;;;11.20;99.90;;;;;;5122811;28;20227;-85
2022/09/19 17:12:20;;;;;;;32.07;16.63;;;11.10;99.90;;;;;;5121123;28;20178;-83
2022/09/19 17:14:46;;;;;;;42.77;19.30;;;11.00;99.90;;;;;;5122935;28;20164;-83
2022/09/19 17:17:13;;;;;;;58.03;28.47;;;10.90;99.90;;;;;;5120042;28;20193;-84
2022/09/19 17:19:40;;;;;;;52.90;24.27;;;10.90;99.90;;;;;;5120160;28;20201;-86
2022/09/19 17:22:10;;;;;;;43.47;21.97;;;10.80;99.90;;;;;;5119539;28;20183;-86
2022/09/19 17:24:36;;;;;;;20.17;11.90;;;10.70;99.90;;;;;;5120226;28;20179;-86
2022/09/19 17:27:01;;;;;;;11.20;6.03;;;10.60;99.90;;;;;;5123870;28;20175;-84
2022/09/19 17:29:27;;;;;;;6.77;4.50;;;10.50;99.90;;;;;;5123177;28;20290;-85
2022/09/19 17:31:54;;;;;;;5.20;3.97;;;10.50;99.90;;;;;;5123375;28;20199;-83
2022/09/19 17:34:19;;;;;;;10.37;7.00;;;10.40;99.90;;;;;;5123597;28;20205;-84
2022/09/19 17:36:45;;;;;;;5.80;2.80;;;10.30;99.90;;;;;;5123473;28;20173;-85
2022/09/19 17:39:11;;;;;;;7.83;4.27;;;10.30;99.90;;;;;;5123524;28;20625;-83
2022/09/19 17:41:36;;;;;;;5.87;3.70;;;10.30;99.90;;;;;;5120993;28;20660;-85
2022/09/19 17:44:05;;;;;;;4.33;3.30;;;10.20;99.90;;;;;;5121715;28;20252;-84
2022/09/19 17:46:32;;;;;;;4.03;2.97;;;10.30;99.90;;;;;;5121906;28;20186;-85
2022/09/19 17:48:58;;;;;;;4.70;3.23;;;10.30;99.90;;;;;;5121126;28;20192;-86
2022/09/19 17:51:23;;;;;;;7.27;2.57;;;10.30;99.90;;;;;;5122121;28;20696;-85
2022/09/19 17:53:49;;;;;;;3.43;2.33;;;10.30;99.90;;;;;;5122170;28;20222;-84
2022/09/19 17:56:18;;;;;;;4.50;2.33;;;10.20;99.90;;;;;;5122171;28;20260;-85
2022/09/19 17:58:51;;;;;;;3.43;1.63;;;10.30;99.90;;;;;;5123209;28;20167;-86
2022/09/19 18:04:02;;;;;;;4.07;2.97;;;10.30;99.90;;;;;;5122917;28;20198;-86
2022/09/19 18:06:29;;;;;;;5.87;3.10;;;10.30;99.90;;;;;;5121104;28;20176;-85
2022/09/19 18:08:54;;;;;;;8.80;4.27;;;10.30;99.90;;;;;;5121241;28;20207;-85
2022/09/19 18:11:20;;;;;;;8.47;4.80;;;10.30;99.90;;;;;;5122402;28;20568;-87
2022/09/19 18:13:47;;;;;;;7.03;4.33;;;10.30;99.90;;;;;;5120974;28;20193;-83
2022/09/19 18:16:16;;;;;;;5.50;3.40;;;10.30;99.90;;;;;;5120726;28;20245;-84
2022/09/19 18:18:43;;;;;;;5.73;3.53;;;10.40;99.90;;;;;;5120366;28;20178;-83
2022/09/19 18:21:10;;;;;;;3.57;2.40;;;10.30;99.90;;;;;;5119768;28;20174;-85
2022/09/19 18:23:37;;;;;;;4.40;1.90;;;10.30;99.90;;;;;;5120328;28;20195;-86
2022/09/19 18:26:05;;;;;;;1.70;1.47;;;10.30;99.90;;;;;;5121337;28;20178;-84
2022/09/19 18:28:35;;;;;;;3.40;1.67;;;10.30;99.90;;;;;;5121641;28;20657;-83
2022/09/19 18:31:07;;;;;;;3.17;1.77;;;10.30;99.90;;;;;;5120186;28;20203;-86
2022/09/19 18:33:33;;;;;;;1.57;1.13;;;10.20;99.90;;;;;;5121606;28;20190;-86
2022/09/19 18:36:05;;;;;;;5.47;2.10;;;10.20;99.90;;;;;;5121038;28;20254;-84
2022/09/19 18:38:30;;;;;;;1.93;1.50;;;10.20;99.90;;;;;;5121102;28;20210;-83
2022/09/19 18:40:58;;;;;;;1.90;1.70;;;10.20;99.90;;;;;;5122580;28;20177;-84
2022/09/19 18:43:25;;;;;;;5.27;2.67;;;10.10;99.90;;;;;;5121035;28;20262;-84
2022/09/19 18:46:01;;;;;;;6.80;4.87;;;10.10;99.90;;;;;;5120717;28;20175;-85
2022/09/19 18:48:27;;;;;;;5.97;3.50;;;10.10;99.90;;;;;;5120608;28;20201;-85
2022/09/19 18:50:53;;;;;;;3.37;2.60;;;10.10;99.90;;;;;;5120965;28;20214;-84
2022/09/19 18:53:19;;;;;;;2.83;2.40;;;10.10;99.90;;;;;;5122684;28;20201;-84
2022/09/19 18:55:49;;;;;;;4.67;3.83;;;10.10;99.90;;;;;;5122166;28;20561;-85
2022/09/19 18:58:15;;;;;;;7.47;4.70;;;10.00;99.90;;;;;;5119030;28;20163;-85
2022/09/19 19:00:44;;;;;;;3.87;1.57;;;9.90;99.90;;;;;;5117697;28;20178;-84
2022/09/19 19:03:11;;;;;;;1.90;1.50;;;9.80;99.90;;;;;;5117252;28;20203;-84
2022/09/19 19:05:37;;;;;;;1.77;1.20;;;9.60;99.90;;;;;;5119532;28;20184;-85
2022/09/19 19:08:02;;;;;;;3.77;1.47;;;9.60;99.90;;;;;;5117999;28;20176;-85
2022/09/19 19:10:32;;;;;;;2.40;1.20;;;9.50;99.90;;;;;;5118376;28;20195;-86
2022/09/19 19:12:57;;;;;;;2.03;1.23;;;9.40;99.90;;;;;;5118849;28;20201;-85
2022/09/19 19:15:24;;;;;;;2.57;1.50;;;9.40;99.90;;;;;;5119524;28;20172;-85
2022/09/19 19:17:50;;;;;;;2.70;1.53;;;9.30;99.90;;;;;;5117686;28;20182;-86
2022/09/19 19:20:16;;;;;;;5.70;1.60;;;9.30;99.90;;;;;;5119972;28;20176;-84
2022/09/19 19:22:44;;;;;;;2.20;1.77;;;9.30;99.90;;;;;;5119632;28;20254;-85
2022/09/19 19:25:09;;;;;;;2.23;1.67;;;9.30;99.90;;;;;;5119960;28;20188;-85
2022/09/19 19:27:35;;;;;;;2.20;1.60;;;9.30;99.90;;;;;;5119839;28;20256;-85
2022/09/19 19:30:01;;;;;;;3.87;2.20;;;9.30;99.90;;;;;;5120579;28;20201;-86
2022/09/19 19:32:27;;;;;;;2.47;2.10;;;9.30;99.90;;;;;;5118831;28;20207;-85
2022/09/19 19:34:52;;;;;;;3.00;2.20;;;9.30;99.90;;;;;;5119401;28;20207;-85
2022/09/19 19:37:20;;;;;;;2.50;1.70;;;9.30;99.90;;;;;;5118344;28;20208;-85
2022/09/19 19:39:46;;;;;;;3.60;3.20;;;9.30;99.90;;;;;;5118606;28;20181;-85
2022/09/19 19:42:12;;;;;;;5.17;2.00;;;9.30;99.90;;;;;;5119838;28;20197;-86
2022/09/19 19:44:38;;;;;;;2.17;1.80;;;9.30;99.90;;;;;;5119673;28;20179;-86
2022/09/19 19:47:04;;;;;;;2.33;1.73;;;9.20;99.90;;;;;;5119501;28;20190;-85
2022/09/19 19:49:30;;;;;;;1.60;1.47;;;9.20;99.90;;;;;;5117060;28;20223;-85
2022/09/19 19:51:56;;;;;;;1.87;1.30;;;9.20;99.90;;;;;;5116150;28;20174;-85
2022/09/19 19:54:22;;;;;;;1.97;1.70;;;9.20;99.90;;;;;;5115833;28;20193;-85
2022/09/19 19:56:48;;;;;;;4.20;2.27;;;9.20;99.90;;;;;;5116908;28;20213;-85
2022/09/19 19:59:14;;;;;;;5.03;3.50;;;9.20;99.90;;;;;;5115443;28;20190;-85
2022/09/19 20:01:40;;;;;;;4.90;2.70;;;9.30;99.90;;;;;;5116035;28;20181;-84
2022/09/19 20:04:08;;;;;;;3.67;2.67;;;9.30;99.90;;;;;;5115949;28;20609;-85
2022/09/19 20:06:42;;;;;;;5.23;2.60;;;9.30;99.90;;;;;;5116574;28;20555;-84
2022/09/19 20:09:12;;;;;;;5.40;2.57;;;9.30;99.90;;;;;;5121891;28;20700;-86
2022/09/19 20:11:39;;;;;;;3.43;2.30;;;9.20;99.90;;;;;;5115363;28;20236;-86
2022/09/19 20:14:10;;;;;;;5.40;3.10;;;9.20;99.90;;;;;;5117134;28;20274;-85
2022/09/19 20:16:38;;;;;;;5.40;2.80;;;9.30;99.90;;;;;;5119354;28;20665;-84
2022/09/19 20:19:05;;;;;;;4.97;2.90;;;9.30;99.90;;;;;;5116876;28;20679;-84
2022/09/19 20:21:38;;;;;;;4.63;2.60;;;9.30;99.90;;;;;;5115071;28;20256;-85
2022/09/19 20:24:04;;;;;;;4.17;2.67;;;9.20;99.90;;;;;;5116426;28;20324;-85
2022/09/19 20:26:34;;;;;;;3.50;1.90;;;9.30;99.90;;;;;;5116093;28;20233;-84
2022/09/19 20:29:00;;;;;;;2.33;1.70;;;9.20;99.90;;;;;;5114080;28;20189;-86
2022/09/19 20:31:29;;;;;;;5.53;2.20;;;9.20;99.90;;;;;;5116041;28;20168;-86
2022/09/19 20:33:55;;;;;;;6.20;2.43;;;9.30;99.90;;;;;;5114224;28;20275;-86
2022/09/19 20:36:22;;;;;;;12.50;4.63;;;9.20;99.90;;;;;;5116168;28;20621;-86
2022/09/19 20:38:50;;;;;;;13.50;4.43;;;9.20;99.90;;;;;;5114767;28;20548;-86
2022/09/19 20:41:16;;;;;;;21.60;6.60;;;9.20;99.90;;;;;;5115916;28;20179;-86
2022/09/19 20:43:42;;;;;;;16.73;5.63;;;9.20;99.90;;;;;;5114533;28;20623;-85
2022/09/19 20:46:15;;;;;;;8.73;4.13;;;9.20;99.90;;;;;;5115145;28;20597;-85
2022/09/19 20:48:43;;;;;;;6.50;2.43;;;9.10;99.90;;;;;;5115961;28;20201;-85
2022/09/19 20:51:18;;;;;;;3.23;2.27;;;9.10;99.90;;;;;;5116953;28;20184;-85
2022/09/19 20:53:47;;;;;;;2.33;1.63;;;9.10;99.90;;;;;;5115244;28;20202;-83
2022/09/19 20:56:15;;;;;;;4.37;1.80;;;9.10;99.90;;;;;;5116805;28;20581;-85
2022/09/19 20:58:41;;;;;;;2.60;1.87;;;9.10;99.90;;;;;;5119195;28;20619;-85
2022/09/19 21:01:10;;;;;;;4.17;2.17;;;9.10;99.90;;;;;;5119051;28;20209;-86
2022/09/19 21:03:38;;;;;;;5.13;2.33;;;9.10;99.90;;;;;;5119606;28;20219;-84
2022/09/19 21:06:04;;;;;;;3.60;2.10;;;9.10;99.90;;;;;;5119860;28;20172;-84
2022/09/19 21:08:35;;;;;;;2.97;1.93;;;9.10;99.90;;;;;;5118051;28;20195;-84
2022/09/19 21:11:07;;;;;;;3.20;2.20;;;9.10;99.90;;;;;;5120439;28;20193;-84
2022/09/19 21:13:37;;;;;;;2.33;1.53;;;9.20;99.90;;;;;;5117524;28;20294;-84
2022/09/19 21:16:14;;;;;;;2.47;1.73;;;9.30;99.90;;;;;;5118210;28;20258;-85
2022/09/19 21:18:43;;;;;;;3.47;1.50;;;9.30;99.90;;;;;;5119171;28;20177;-85
2022/09/19 21:21:11;;;;;;;3.47;1.73;;;9.30;99.90;;;;;;5116823;28;20182;-84
2022/09/19 21:23:43;;;;;;;2.67;2.07;;;9.30;99.90;;;;;;5117930;28;20560;-84
2022/09/19 21:26:13;;;;;;;2.07;1.80;;;9.30;99.90;;;;;;5118418;28;20169;-84